sensor_id;sensor_type;location;lat;lon;timestamp;P1;durP1;ratioP1;P2;durP2;ratioP2
67804;SDS011;54603;45.638;11.714;2022-12-16T00:01:12;6.60;;;4.90;;
67804;SDS011;54603;45.638;11.714;2022-12-16T00:03:41;5.50;;;4.50;;
67804;SDS011;54603;45.638;11.714;2022-12-16T00:06:08;5.20;;;4.50;;
67804;SDS011;54603;45.638;11.714;2022-12-16T00:08:35;7.60;;;4.80;;
67804;SDS011;54603;45.638;11.714;2022-12-16T00:11:02;5.90;;;4.80;;
67804;SDS011;54603;45.638;11.714;2022-12-16T00:13:28;7.30;;;4.80;;
67804;SDS011;54603;45.638;11.714;2022-12-16T00:15:55;6.70;;;4.70;;
67804;SDS011;54603;45.638;11.714;2022-12-16T00:18:21;6.00;;;4.90;;
67804;SDS011;54603;45.638;11.714;2022-12-16T00:20:47;6.30;;;4.50;;
67804;SDS011;54603;45.638;11.714;2022-12-16T00:23:15;6.60;;;5.00;;
67804;SDS011;54603;45.638;11.714;2022-12-16T00:25:41;7.60;;;4.70;;
67804;SDS011;54603;45.638;11.714;2022-12-16T00:28:08;5.40;;;4.50;;
67804;SDS011;54603;45.638;11.714;2022-12-16T00:30:34;5.20;;;4.30;;
67804;SDS011;54603;45.638;11.714;2022-12-16T00:33:00;6.60;;;5.00;;
67804;SDS011;54603;45.638;11.714;2022-12-16T00:35:25;7.90;;;5.00;;
67804;SDS011;54603;45.638;11.714;2022-12-16T00:37:51;5.80;;;4.10;;
67804;SDS011;54603;45.638;11.714;2022-12-16T00:40:16;5.70;;;4.40;;
67804;SDS011;54603;45.638;11.714;2022-12-16T00:42:42;6.00;;;4.80;;
67804;SDS011;54603;45.638;11.714;2022-12-16T00:45:07;5.50;;;4.20;;
67804;SDS011;54603;45.638;11.714;2022-12-16T00:47:33;6.00;;;4.40;;
67804;SDS011;54603;45.638;11.714;2022-12-16T00:49:59;6.30;;;4.30;;
67804;SDS011;54603;45.638;11.714;2022-12-16T00:52:24;6.50;;;4.90;;
67804;SDS011;54603;45.638;11.714;2022-12-16T00:54:50;5.70;;;4.70;;
67804;SDS011;54603;45.638;11.714;2022-12-16T00:57:15;7.00;;;4.60;;
67804;SDS011;54603;45.638;11.714;2022-12-16T00:59:41;6.00;;;4.20;;
67804;SDS011;54603;45.638;11.714;2022-12-16T01:02:06;5.90;;;4.60;;
67804;SDS011;54603;45.638;11.714;2022-12-16T01:04:32;5.90;;;4.60;;
67804;SDS011;54603;45.638;11.714;2022-12-16T01:06:57;5.30;;;4.60;;
67804;SDS011;54603;45.638;11.714;2022-12-16T01:09:23;6.30;;;4.70;;
67804;SDS011;54603;45.638;11.714;2022-12-16T01:11:48;4.90;;;4.40;;
67804;SDS011;54603;45.638;11.714;2022-12-16T01:14:14;5.10;;;4.30;;
67804;SDS011;54603;45.638;11.714;2022-12-16T01:16:39;5.10;;;4.40;;
67804;SDS011;54603;45.638;11.714;2022-12-16T01:19:05;5.70;;;4.40;;
67804;SDS011;54603;45.638;11.714;2022-12-16T01:21:30;5.60;;;4.70;;
67804;SDS011;54603;45.638;11.714;2022-12-16T01:23:56;5.40;;;4.50;;
67804;SDS011;54603;45.638;11.714;2022-12-16T01:26:22;5.90;;;4.40;;
67804;SDS011;54603;45.638;11.714;2022-12-16T01:28:47;5.30;;;4.50;;
67804;SDS011;54603;45.638;11.714;2022-12-16T01:31:14;5.50;;;4.50;;
67804;SDS011;54603;45.638;11.714;2022-12-16T01:33:41;5.30;;;4.40;;
67804;SDS011;54603;45.638;11.714;2022-12-16T01:36:07;5.30;;;4.60;;
67804;SDS011;54603;45.638;11.714;2022-12-16T01:38:34;4.90;;;4.30;;
67804;SDS011;54603;45.638;11.714;2022-12-16T01:41:00;5.90;;;4.40;;
67804;SDS011;54603;45.638;11.714;2022-12-16T01:43:29;6.30;;;4.40;;
67804;SDS011;54603;45.638;11.714;2022-12-16T01:48:42;4.30;;;3.90;;
67804;SDS011;54603;45.638;11.714;2022-12-16T01:51:24;4.20;;;3.80;;
67804;SDS011;54603;45.638;11.714;2022-12-16T01:54:03;5.30;;;4.40;;
67804;SDS011;54603;45.638;11.714;2022-12-16T01:56:30;4.70;;;4.10;;
67804;SDS011;54603;45.638;11.714;2022-12-16T01:58:57;4.20;;;3.80;;
67804;SDS011;54603;45.638;11.714;2022-12-16T02:01:24;4.50;;;4.00;;
67804;SDS011;54603;45.638;11.714;2022-12-16T02:03:49;5.40;;;4.40;;
67804;SDS011;54603;45.638;11.714;2022-12-16T02:06:17;5.00;;;4.10;;
67804;SDS011;54603;45.638;11.714;2022-12-16T02:08:42;5.20;;;4.50;;
67804;SDS011;54603;45.638;11.714;2022-12-16T02:19:25;5.90;;;4.20;;
67804;SDS011;54603;45.638;11.714;2022-12-16T02:22:26;4.70;;;4.00;;
67804;SDS011;54603;45.638;11.714;2022-12-16T02:27:43;5.10;;;4.20;;
67804;SDS011;54603;45.638;11.714;2022-12-16T02:33:33;4.30;;;3.90;;
67804;SDS011;54603;45.638;11.714;2022-12-16T02:36:41;4.70;;;4.10;;
67804;SDS011;54603;45.638;11.714;2022-12-16T02:41:56;4.40;;;3.80;;
67804;SDS011;54603;45.638;11.714;2022-12-16T02:47:23;4.30;;;3.90;;
67804;SDS011;54603;45.638;11.714;2022-12-16T02:49:50;5.10;;;4.30;;
67804;SDS011;54603;45.638;11.714;2022-12-16T02:52:18;4.70;;;4.30;;
67804;SDS011;54603;45.638;11.714;2022-12-16T02:54:54;5.20;;;4.00;;
67804;SDS011;54603;45.638;11.714;2022-12-16T03:00:02;5.00;;;4.00;;
67804;SDS011;54603;45.638;11.714;2022-12-16T03:07:50;5.40;;;4.40;;
67804;SDS011;54603;45.638;11.714;2022-12-16T03:10:18;4.20;;;3.80;;
67804;SDS011;54603;45.638;11.714;2022-12-16T03:12:46;4.40;;;3.70;;
67804;SDS011;54603;45.638;11.714;2022-12-16T03:15:12;4.30;;;3.90;;
67804;SDS011;54603;45.638;11.714;2022-12-16T03:17:41;4.60;;;3.60;;
67804;SDS011;54603;45.638;11.714;2022-12-16T03:20:21;6.50;;;4.20;;
67804;SDS011;54603;45.638;11.714;2022-12-16T03:23:14;6.40;;;4.10;;
67804;SDS011;54603;45.638;11.714;2022-12-16T03:25:44;4.60;;;3.80;;
67804;SDS011;54603;45.638;11.714;2022-12-16T03:30:44;4.70;;;4.00;;
67804;SDS011;54603;45.638;11.714;2022-12-16T03:33:19;4.80;;;3.60;;
67804;SDS011;54603;45.638;11.714;2022-12-16T03:35:56;4.40;;;3.70;;
67804;SDS011;54603;45.638;11.714;2022-12-16T03:38:23;5.00;;;4.00;;
67804;SDS011;54603;45.638;11.714;2022-12-16T03:40:50;4.20;;;3.80;;
67804;SDS011;54603;45.638;11.714;2022-12-16T03:43:16;4.10;;;3.70;;
67804;SDS011;54603;45.638;11.714;2022-12-16T03:45:43;4.60;;;3.80;;
67804;SDS011;54603;45.638;11.714;2022-12-16T03:48:13;4.60;;;3.90;;
67804;SDS011;54603;45.638;11.714;2022-12-16T03:50:40;4.10;;;3.70;;
67804;SDS011;54603;45.638;11.714;2022-12-16T03:53:06;5.20;;;4.70;;
67804;SDS011;54603;45.638;11.714;2022-12-16T03:55:32;4.60;;;3.80;;
67804;SDS011;54603;45.638;11.714;2022-12-16T03:57:58;4.80;;;3.80;;
67804;SDS011;54603;45.638;11.714;2022-12-16T04:00:24;4.90;;;4.00;;
67804;SDS011;54603;45.638;11.714;2022-12-16T04:02:50;4.00;;;3.60;;
67804;SDS011;54603;45.638;11.714;2022-12-16T04:05:17;6.10;;;3.40;;
67804;SDS011;54603;45.638;11.714;2022-12-16T04:07:43;4.20;;;3.60;;
67804;SDS011;54603;45.638;11.714;2022-12-16T04:10:09;4.50;;;3.70;;
67804;SDS011;54603;45.638;11.714;2022-12-16T04:12:35;4.20;;;3.60;;
67804;SDS011;54603;45.638;11.714;2022-12-16T04:15:20;4.30;;;3.60;;
67804;SDS011;54603;45.638;11.714;2022-12-16T04:18:04;5.20;;;4.10;;
67804;SDS011;54603;45.638;11.714;2022-12-16T04:20:52;4.20;;;3.70;;
67804;SDS011;54603;45.638;11.714;2022-12-16T04:23:41;4.20;;;3.80;;
67804;SDS011;54603;45.638;11.714;2022-12-16T04:26:33;6.30;;;4.00;;
67804;SDS011;54603;45.638;11.714;2022-12-16T04:29:18;4.40;;;3.50;;
67804;SDS011;54603;45.638;11.714;2022-12-16T04:31:44;6.00;;;4.00;;
67804;SDS011;54603;45.638;11.714;2022-12-16T04:34:09;3.90;;;3.50;;
67804;SDS011;54603;45.638;11.714;2022-12-16T04:36:58;4.40;;;3.70;;
67804;SDS011;54603;45.638;11.714;2022-12-16T04:39:44;4.80;;;4.00;;
67804;SDS011;54603;45.638;11.714;2022-12-16T04:42:29;4.20;;;3.70;;
67804;SDS011;54603;45.638;11.714;2022-12-16T04:45:13;4.70;;;4.00;;
67804;SDS011;54603;45.638;11.714;2022-12-16T04:47:58;4.80;;;3.70;;
67804;SDS011;54603;45.638;11.714;2022-12-16T04:50:43;3.80;;;3.40;;
67804;SDS011;54603;45.638;11.714;2022-12-16T04:53:28;4.30;;;3.60;;
67804;SDS011;54603;45.638;11.714;2022-12-16T04:56:12;4.40;;;3.90;;
67804;SDS011;54603;45.638;11.714;2022-12-16T04:58:56;4.30;;;3.80;;
67804;SDS011;54603;45.638;11.714;2022-12-16T05:01:41;4.60;;;3.80;;
67804;SDS011;54603;45.638;11.714;2022-12-16T05:04:26;4.10;;;3.50;;
67804;SDS011;54603;45.638;11.714;2022-12-16T05:07:10;4.40;;;3.60;;
67804;SDS011;54603;45.638;11.714;2022-12-16T05:09:54;3.70;;;3.40;;
67804;SDS011;54603;45.638;11.714;2022-12-16T05:12:38;4.20;;;3.80;;
67804;SDS011;54603;45.638;11.714;2022-12-16T05:15:22;4.20;;;3.60;;
67804;SDS011;54603;45.638;11.714;2022-12-16T05:18:08;3.80;;;3.50;;
67804;SDS011;54603;45.638;11.714;2022-12-16T05:20:53;5.40;;;3.80;;
67804;SDS011;54603;45.638;11.714;2022-12-16T05:23:37;5.20;;;4.00;;
67804;SDS011;54603;45.638;11.714;2022-12-16T05:26:21;6.90;;;4.10;;
67804;SDS011;54603;45.638;11.714;2022-12-16T05:29:05;4.30;;;3.70;;
67804;SDS011;54603;45.638;11.714;2022-12-16T05:31:49;4.00;;;3.60;;
67804;SDS011;54603;45.638;11.714;2022-12-16T05:34:33;4.10;;;3.60;;
67804;SDS011;54603;45.638;11.714;2022-12-16T05:37:17;4.40;;;3.90;;
67804;SDS011;54603;45.638;11.714;2022-12-16T05:40:02;4.40;;;3.90;;
67804;SDS011;54603;45.638;11.714;2022-12-16T05:42:46;4.10;;;3.70;;
67804;SDS011;54603;45.638;11.714;2022-12-16T05:45:30;4.00;;;3.60;;
67804;SDS011;54603;45.638;11.714;2022-12-16T05:48:14;3.90;;;3.50;;
67804;SDS011;54603;45.638;11.714;2022-12-16T05:50:58;4.30;;;3.70;;
67804;SDS011;54603;45.638;11.714;2022-12-16T05:53:42;5.30;;;3.90;;
67804;SDS011;54603;45.638;11.714;2022-12-16T05:56:26;4.90;;;4.10;;
67804;SDS011;54603;45.638;11.714;2022-12-16T05:59:10;4.30;;;3.90;;
67804;SDS011;54603;45.638;11.714;2022-12-16T06:01:55;4.20;;;3.80;;
67804;SDS011;54603;45.638;11.714;2022-12-16T06:04:39;4.40;;;4.00;;
67804;SDS011;54603;45.638;11.714;2022-12-16T06:07:23;4.80;;;3.80;;
67804;SDS011;54603;45.638;11.714;2022-12-16T06:10:07;4.50;;;3.50;;
67804;SDS011;54603;45.638;11.714;2022-12-16T06:12:51;6.50;;;4.30;;
67804;SDS011;54603;45.638;11.714;2022-12-16T06:15:36;4.40;;;3.90;;
67804;SDS011;54603;45.638;11.714;2022-12-16T06:18:20;5.50;;;4.00;;
67804;SDS011;54603;45.638;11.714;2022-12-16T06:21:04;5.10;;;4.50;;
67804;SDS011;54603;45.638;11.714;2022-12-16T06:23:49;4.60;;;4.10;;
67804;SDS011;54603;45.638;11.714;2022-12-16T06:26:35;4.50;;;3.90;;
67804;SDS011;54603;45.638;11.714;2022-12-16T06:29:19;5.50;;;4.30;;
67804;SDS011;54603;45.638;11.714;2022-12-16T06:32:03;4.90;;;4.10;;
67804;SDS011;54603;45.638;11.714;2022-12-16T06:34:47;5.20;;;4.20;;
67804;SDS011;54603;45.638;11.714;2022-12-16T06:37:31;5.30;;;3.90;;
67804;SDS011;54603;45.638;11.714;2022-12-16T06:40:15;4.30;;;3.90;;
67804;SDS011;54603;45.638;11.714;2022-12-16T06:42:59;8.00;;;4.60;;
67804;SDS011;54603;45.638;11.714;2022-12-16T06:45:43;5.60;;;4.10;;
67804;SDS011;54603;45.638;11.714;2022-12-16T06:48:27;5.60;;;3.80;;
67804;SDS011;54603;45.638;11.714;2022-12-16T06:51:11;7.60;;;4.20;;
67804;SDS011;54603;45.638;11.714;2022-12-16T06:53:55;6.00;;;4.30;;
67804;SDS011;54603;45.638;11.714;2022-12-16T06:56:40;6.30;;;3.80;;
67804;SDS011;54603;45.638;11.714;2022-12-16T06:59:25;5.90;;;4.10;;
67804;SDS011;54603;45.638;11.714;2022-12-16T07:02:10;6.80;;;4.20;;
67804;SDS011;54603;45.638;11.714;2022-12-16T07:04:55;5.70;;;4.20;;
67804;SDS011;54603;45.638;11.714;2022-12-16T07:07:45;5.30;;;4.20;;
67804;SDS011;54603;45.638;11.714;2022-12-16T07:10:40;7.50;;;4.60;;
67804;SDS011;54603;45.638;11.714;2022-12-16T07:13:25;6.10;;;4.00;;
67804;SDS011;54603;45.638;11.714;2022-12-16T07:16:09;7.10;;;4.00;;
67804;SDS011;54603;45.638;11.714;2022-12-16T07:18:53;4.90;;;4.10;;
67804;SDS011;54603;45.638;11.714;2022-12-16T07:21:37;8.90;;;6.70;;
67804;SDS011;54603;45.638;11.714;2022-12-16T07:24:21;7.30;;;5.40;;
67804;SDS011;54603;45.638;11.714;2022-12-16T07:27:05;8.90;;;5.60;;
67804;SDS011;54603;45.638;11.714;2022-12-16T07:29:49;9.10;;;5.10;;
67804;SDS011;54603;45.638;11.714;2022-12-16T07:32:33;9.10;;;5.70;;
67804;SDS011;54603;45.638;11.714;2022-12-16T07:35:18;7.20;;;5.40;;
67804;SDS011;54603;45.638;11.714;2022-12-16T07:38:02;7.90;;;5.20;;
67804;SDS011;54603;45.638;11.714;2022-12-16T07:40:46;8.90;;;5.40;;
67804;SDS011;54603;45.638;11.714;2022-12-16T07:43:31;6.80;;;5.30;;
67804;SDS011;54603;45.638;11.714;2022-12-16T07:46:15;8.60;;;5.10;;
67804;SDS011;54603;45.638;11.714;2022-12-16T07:48:59;9.30;;;5.30;;
67804;SDS011;54603;45.638;11.714;2022-12-16T07:51:45;8.10;;;5.40;;
67804;SDS011;54603;45.638;11.714;2022-12-16T07:54:46;9.00;;;5.50;;
67804;SDS011;54603;45.638;11.714;2022-12-16T07:57:36;6.80;;;5.60;;
67804;SDS011;54603;45.638;11.714;2022-12-16T08:00:20;7.20;;;5.40;;
67804;SDS011;54603;45.638;11.714;2022-12-16T08:03:04;6.90;;;5.10;;
67804;SDS011;54603;45.638;11.714;2022-12-16T08:05:48;8.80;;;5.50;;
67804;SDS011;54603;45.638;11.714;2022-12-16T08:08:33;8.90;;;5.50;;
67804;SDS011;54603;45.638;11.714;2022-12-16T08:11:17;7.90;;;5.40;;
67804;SDS011;54603;45.638;11.714;2022-12-16T08:14:01;7.90;;;5.40;;
67804;SDS011;54603;45.638;11.714;2022-12-16T08:16:46;7.80;;;5.70;;
67804;SDS011;54603;45.638;11.714;2022-12-16T08:19:29;7.20;;;5.70;;
67804;SDS011;54603;45.638;11.714;2022-12-16T08:22:34;6.60;;;5.00;;
67804;SDS011;54603;45.638;11.714;2022-12-16T08:25:19;8.60;;;5.50;;
67804;SDS011;54603;45.638;11.714;2022-12-16T08:28:03;7.40;;;5.00;;
67804;SDS011;54603;45.638;11.714;2022-12-16T08:30:50;8.80;;;5.60;;
67804;SDS011;54603;45.638;11.714;2022-12-16T08:33:35;7.40;;;5.20;;
67804;SDS011;54603;45.638;11.714;2022-12-16T08:36:20;6.00;;;4.90;;
67804;SDS011;54603;45.638;11.714;2022-12-16T08:39:05;7.80;;;5.40;;
67804;SDS011;54603;45.638;11.714;2022-12-16T08:41:50;6.90;;;5.50;;
67804;SDS011;54603;45.638;11.714;2022-12-16T08:44:35;6.30;;;4.80;;
67804;SDS011;54603;45.638;11.714;2022-12-16T08:47:21;7.10;;;5.20;;
67804;SDS011;54603;45.638;11.714;2022-12-16T08:50:05;7.10;;;5.30;;
67804;SDS011;54603;45.638;11.714;2022-12-16T08:52:50;5.90;;;4.90;;
67804;SDS011;54603;45.638;11.714;2022-12-16T08:55:34;7.20;;;5.30;;
67804;SDS011;54603;45.638;11.714;2022-12-16T08:58:19;9.10;;;5.30;;
67804;SDS011;54603;45.638;11.714;2022-12-16T09:01:03;5.70;;;4.80;;
67804;SDS011;54603;45.638;11.714;2022-12-16T09:04:04;5.80;;;5.00;;
67804;SDS011;54603;45.638;11.714;2022-12-16T09:06:48;9.10;;;4.80;;
67804;SDS011;54603;45.638;11.714;2022-12-16T09:09:32;5.90;;;5.00;;
67804;SDS011;54603;45.638;11.714;2022-12-16T09:12:16;6.40;;;4.80;;
67804;SDS011;54603;45.638;11.714;2022-12-16T09:15:00;6.80;;;5.00;;
67804;SDS011;54603;45.638;11.714;2022-12-16T09:17:45;5.50;;;4.80;;
67804;SDS011;54603;45.638;11.714;2022-12-16T09:20:36;6.90;;;4.60;;
67804;SDS011;54603;45.638;11.714;2022-12-16T09:23:20;6.60;;;5.20;;
67804;SDS011;54603;45.638;11.714;2022-12-16T09:26:04;6.60;;;4.70;;
67804;SDS011;54603;45.638;11.714;2022-12-16T09:28:49;7.70;;;4.90;;
67804;SDS011;54603;45.638;11.714;2022-12-16T09:31:33;6.20;;;5.00;;
67804;SDS011;54603;45.638;11.714;2022-12-16T09:34:17;5.50;;;4.40;;
67804;SDS011;54603;45.638;11.714;2022-12-16T09:37:15;5.90;;;4.80;;
67804;SDS011;54603;45.638;11.714;2022-12-16T09:40:00;7.10;;;4.70;;
67804;SDS011;54603;45.638;11.714;2022-12-16T09:42:53;5.70;;;4.80;;
67804;SDS011;54603;45.638;11.714;2022-12-16T09:46:10;6.40;;;4.90;;
67804;SDS011;54603;45.638;11.714;2022-12-16T09:52:04;6.30;;;4.70;;
67804;SDS011;54603;45.638;11.714;2022-12-16T09:54:49;6.50;;;4.80;;
67804;SDS011;54603;45.638;11.714;2022-12-16T09:57:34;6.30;;;4.90;;
67804;SDS011;54603;45.638;11.714;2022-12-16T10:00:21;7.00;;;5.00;;
67804;SDS011;54603;45.638;11.714;2022-12-16T10:03:49;6.20;;;4.90;;
67804;SDS011;54603;45.638;11.714;2022-12-16T10:06:33;5.60;;;4.70;;
67804;SDS011;54603;45.638;11.714;2022-12-16T10:09:31;9.00;;;6.20;;
67804;SDS011;54603;45.638;11.714;2022-12-16T10:15:57;8.60;;;6.10;;
67804;SDS011;54603;45.638;11.714;2022-12-16T10:22:10;7.70;;;6.10;;
67804;SDS011;54603;45.638;11.714;2022-12-16T10:25:06;9.60;;;6.40;;
67804;SDS011;54603;45.638;11.714;2022-12-16T10:28:44;9.80;;;6.40;;
67804;SDS011;54603;45.638;11.714;2022-12-16T10:31:23;9.20;;;6.60;;
67804;SDS011;54603;45.638;11.714;2022-12-16T10:34:12;9.30;;;6.40;;
67804;SDS011;54603;45.638;11.714;2022-12-16T10:36:59;8.70;;;5.60;;
67804;SDS011;54603;45.638;11.714;2022-12-16T10:39:45;8.30;;;6.00;;
67804;SDS011;54603;45.638;11.714;2022-12-16T10:42:35;10.00;;;6.70;;
67804;SDS011;54603;45.638;11.714;2022-12-16T10:48:28;9.70;;;6.80;;
67804;SDS011;54603;45.638;11.714;2022-12-16T10:51:14;8.50;;;6.30;;
67804;SDS011;54603;45.638;11.714;2022-12-16T10:55:02;8.60;;;6.40;;
67804;SDS011;54603;45.638;11.714;2022-12-16T11:02:54;9.60;;;6.80;;
67804;SDS011;54603;45.638;11.714;2022-12-16T11:05:46;10.80;;;6.70;;
67804;SDS011;54603;45.638;11.714;2022-12-16T11:08:32;10.70;;;6.60;;
67804;SDS011;54603;45.638;11.714;2022-12-16T11:11:24;9.80;;;6.80;;
67804;SDS011;54603;45.638;11.714;2022-12-16T11:20:11;12.90;;;7.20;;
67804;SDS011;54603;45.638;11.714;2022-12-16T11:23:20;10.30;;;7.90;;
67804;SDS011;54603;45.638;11.714;2022-12-16T11:34:51;12.70;;;8.30;;
67804;SDS011;54603;45.638;11.714;2022-12-16T11:37:37;16.30;;;8.70;;
67804;SDS011;54603;45.638;11.714;2022-12-16T11:40:23;14.80;;;8.80;;
67804;SDS011;54603;45.638;11.714;2022-12-16T11:43:07;15.30;;;8.70;;
67804;SDS011;54603;45.638;11.714;2022-12-16T11:45:54;12.40;;;8.20;;
67804;SDS011;54603;45.638;11.714;2022-12-16T11:48:43;13.10;;;8.80;;
67804;SDS011;54603;45.638;11.714;2022-12-16T11:51:41;12.10;;;8.10;;
67804;SDS011;54603;45.638;11.714;2022-12-16T11:54:35;11.70;;;8.60;;
67804;SDS011;54603;45.638;11.714;2022-12-16T11:57:23;11.70;;;8.00;;
67804;SDS011;54603;45.638;11.714;2022-12-16T12:00:20;12.80;;;8.30;;
67804;SDS011;54603;45.638;11.714;2022-12-16T12:05:56;13.60;;;8.40;;
67804;SDS011;54603;45.638;11.714;2022-12-16T12:08:59;12.50;;;8.00;;
67804;SDS011;54603;45.638;11.714;2022-12-16T12:11:51;10.20;;;7.30;;
67804;SDS011;54603;45.638;11.714;2022-12-16T12:18:01;12.20;;;8.30;;
67804;SDS011;54603;45.638;11.714;2022-12-16T12:27:24;10.30;;;7.80;;
67804;SDS011;54603;45.638;11.714;2022-12-16T12:30:13;11.20;;;8.00;;
67804;SDS011;54603;45.638;11.714;2022-12-16T12:45:24;10.20;;;7.20;;
67804;SDS011;54603;45.638;11.714;2022-12-16T12:57:21;9.70;;;7.40;;
67804;SDS011;54603;45.638;11.714;2022-12-16T13:00:20;11.00;;;6.70;;
67804;SDS011;54603;45.638;11.714;2022-12-16T13:06:01;9.00;;;7.20;;
67804;SDS011;54603;45.638;11.714;2022-12-16T13:11:33;8.60;;;6.60;;
67804;SDS011;54603;45.638;11.714;2022-12-16T13:17:22;11.50;;;7.40;;
67804;SDS011;54603;45.638;11.714;2022-12-16T13:20:53;9.50;;;7.00;;
67804;SDS011;54603;45.638;11.714;2022-12-16T13:26:14;11.60;;;7.00;;
67804;SDS011;54603;45.638;11.714;2022-12-16T13:37:51;11.10;;;6.90;;
67804;SDS011;54603;45.638;11.714;2022-12-16T13:44:10;9.00;;;6.80;;
67804;SDS011;54603;45.638;11.714;2022-12-16T13:46:55;10.20;;;6.60;;
67804;SDS011;54603;45.638;11.714;2022-12-16T13:49:46;10.80;;;7.30;;
67804;SDS011;54603;45.638;11.714;2022-12-16T13:55:25;12.00;;;6.80;;
67804;SDS011;54603;45.638;11.714;2022-12-16T13:58:16;11.20;;;7.10;;
67804;SDS011;54603;45.638;11.714;2022-12-16T14:01:08;10.70;;;6.60;;
67804;SDS011;54603;45.638;11.714;2022-12-16T14:03:54;9.20;;;7.10;;
67804;SDS011;54603;45.638;11.714;2022-12-16T14:06:39;9.50;;;6.80;;
67804;SDS011;54603;45.638;11.714;2022-12-16T14:09:27;10.30;;;7.00;;
67804;SDS011;54603;45.638;11.714;2022-12-16T14:12:43;9.20;;;7.10;;
67804;SDS011;54603;45.638;11.714;2022-12-16T14:15:42;9.20;;;6.30;;
67804;SDS011;54603;45.638;11.714;2022-12-16T14:18:43;10.20;;;7.30;;
67804;SDS011;54603;45.638;11.714;2022-12-16T14:21:47;10.00;;;7.00;;
67804;SDS011;54603;45.638;11.714;2022-12-16T14:24:34;9.80;;;7.00;;
67804;SDS011;54603;45.638;11.714;2022-12-16T14:27:21;9.70;;;6.60;;
67804;SDS011;54603;45.638;11.714;2022-12-16T14:30:14;10.30;;;6.40;;
67804;SDS011;54603;45.638;11.714;2022-12-16T14:32:59;10.60;;;6.70;;
67804;SDS011;54603;45.638;11.714;2022-12-16T14:35:51;10.50;;;6.80;;
67804;SDS011;54603;45.638;11.714;2022-12-16T14:38:35;10.00;;;6.80;;
67804;SDS011;54603;45.638;11.714;2022-12-16T14:41:20;8.10;;;6.50;;
67804;SDS011;54603;45.638;11.714;2022-12-16T14:44:16;9.60;;;6.80;;
67804;SDS011;54603;45.638;11.714;2022-12-16T14:47:02;9.40;;;7.20;;
67804;SDS011;54603;45.638;11.714;2022-12-16T14:49:50;10.20;;;7.00;;
67804;SDS011;54603;45.638;11.714;2022-12-16T14:52:36;7.60;;;6.80;;
67804;SDS011;54603;45.638;11.714;2022-12-16T14:55:31;8.40;;;6.60;;
67804;SDS011;54603;45.638;11.714;2022-12-16T14:58:21;6.70;;;6.00;;
67804;SDS011;54603;45.638;11.714;2022-12-16T15:01:13;9.10;;;6.90;;
67804;SDS011;54603;45.638;11.714;2022-12-16T15:04:02;8.40;;;6.50;;
67804;SDS011;54603;45.638;11.714;2022-12-16T15:06:49;9.00;;;7.10;;
67804;SDS011;54603;45.638;11.714;2022-12-16T15:09:46;11.40;;;6.60;;
67804;SDS011;54603;45.638;11.714;2022-12-16T15:12:32;8.20;;;6.80;;
67804;SDS011;54603;45.638;11.714;2022-12-16T15:15:44;9.90;;;6.50;;
67804;SDS011;54603;45.638;11.714;2022-12-16T15:18:29;8.20;;;6.60;;
67804;SDS011;54603;45.638;11.714;2022-12-16T15:21:16;9.00;;;6.70;;
67804;SDS011;54603;45.638;11.714;2022-12-16T15:24:00;8.30;;;5.80;;
67804;SDS011;54603;45.638;11.714;2022-12-16T15:26:44;12.10;;;6.80;;
67804;SDS011;54603;45.638;11.714;2022-12-16T15:32:34;7.30;;;5.90;;
67804;SDS011;54603;45.638;11.714;2022-12-16T15:41:16;9.00;;;6.50;;
67804;SDS011;54603;45.638;11.714;2022-12-16T15:44:01;7.40;;;6.50;;
67804;SDS011;54603;45.638;11.714;2022-12-16T15:46:46;8.60;;;6.30;;
67804;SDS011;54603;45.638;11.714;2022-12-16T15:49:34;10.90;;;6.90;;
67804;SDS011;54603;45.638;11.714;2022-12-16T15:52:38;7.60;;;6.10;;
67804;SDS011;54603;45.638;11.714;2022-12-16T15:58:13;12.00;;;6.40;;
67804;SDS011;54603;45.638;11.714;2022-12-16T16:01:16;8.70;;;5.90;;
67804;SDS011;54603;45.638;11.714;2022-12-16T16:04:18;7.90;;;6.20;;
67804;SDS011;54603;45.638;11.714;2022-12-16T16:07:15;9.30;;;6.90;;
67804;SDS011;54603;45.638;11.714;2022-12-16T16:10:14;9.80;;;7.20;;
67804;SDS011;54603;45.638;11.714;2022-12-16T16:12:59;12.00;;;6.40;;
67804;SDS011;54603;45.638;11.714;2022-12-16T16:15:43;8.60;;;6.00;;
67804;SDS011;54603;45.638;11.714;2022-12-16T16:18:28;8.30;;;6.40;;
67804;SDS011;54603;45.638;11.714;2022-12-16T16:21:12;9.10;;;6.10;;
67804;SDS011;54603;45.638;11.714;2022-12-16T16:23:56;10.90;;;7.30;;
67804;SDS011;54603;45.638;11.714;2022-12-16T16:26:40;9.90;;;6.30;;
67804;SDS011;54603;45.638;11.714;2022-12-16T16:29:26;9.30;;;7.30;;
67804;SDS011;54603;45.638;11.714;2022-12-16T16:32:15;9.80;;;7.70;;
67804;SDS011;54603;45.638;11.714;2022-12-16T16:35:02;10.00;;;8.10;;
67804;SDS011;54603;45.638;11.714;2022-12-16T16:38:00;9.00;;;7.40;;
67804;SDS011;54603;45.638;11.714;2022-12-16T16:40:45;9.60;;;7.60;;
67804;SDS011;54603;45.638;11.714;2022-12-16T16:43:30;8.80;;;7.60;;
67804;SDS011;54603;45.638;11.714;2022-12-16T16:52:09;12.20;;;7.70;;
67804;SDS011;54603;45.638;11.714;2022-12-16T16:54:55;9.10;;;7.30;;
67804;SDS011;54603;45.638;11.714;2022-12-16T16:57:39;8.80;;;7.60;;
67804;SDS011;54603;45.638;11.714;2022-12-16T17:00:23;9.10;;;7.60;;
67804;SDS011;54603;45.638;11.714;2022-12-16T17:03:07;9.40;;;7.50;;
67804;SDS011;54603;45.638;11.714;2022-12-16T17:05:52;12.70;;;7.70;;
67804;SDS011;54603;45.638;11.714;2022-12-16T17:08:36;9.30;;;7.20;;
67804;SDS011;54603;45.638;11.714;2022-12-16T17:11:21;7.10;;;6.10;;
67804;SDS011;54603;45.638;11.714;2022-12-16T17:14:07;7.60;;;6.80;;
67804;SDS011;54603;45.638;11.714;2022-12-16T17:16:58;9.50;;;7.30;;
67804;SDS011;54603;45.638;11.714;2022-12-16T17:19:42;8.30;;;7.30;;
67804;SDS011;54603;45.638;11.714;2022-12-16T17:22:26;9.30;;;6.80;;
67804;SDS011;54603;45.638;11.714;2022-12-16T17:25:10;8.00;;;6.70;;
67804;SDS011;54603;45.638;11.714;2022-12-16T17:27:54;7.50;;;6.60;;
67804;SDS011;54603;45.638;11.714;2022-12-16T17:30:39;12.60;;;9.40;;
67804;SDS011;54603;45.638;11.714;2022-12-16T17:33:23;13.70;;;11.40;;
67804;SDS011;54603;45.638;11.714;2022-12-16T17:36:10;12.30;;;11.00;;
67804;SDS011;54603;45.638;11.714;2022-12-16T17:38:55;15.00;;;11.30;;
67804;SDS011;54603;45.638;11.714;2022-12-16T17:41:41;13.40;;;11.80;;
67804;SDS011;54603;45.638;11.714;2022-12-16T17:44:28;17.70;;;11.40;;
67804;SDS011;54603;45.638;11.714;2022-12-16T17:47:12;15.30;;;11.80;;
67804;SDS011;54603;45.638;11.714;2022-12-16T17:49:57;12.80;;;11.40;;
67804;SDS011;54603;45.638;11.714;2022-12-16T17:52:41;12.80;;;11.50;;
67804;SDS011;54603;45.638;11.714;2022-12-16T17:55:25;13.60;;;11.10;;
67804;SDS011;54603;45.638;11.714;2022-12-16T17:58:09;12.80;;;11.40;;
67804;SDS011;54603;45.638;11.714;2022-12-16T18:00:58;13.10;;;11.60;;
67804;SDS011;54603;45.638;11.714;2022-12-16T18:03:44;16.70;;;12.00;;
67804;SDS011;54603;45.638;11.714;2022-12-16T18:06:28;13.90;;;12.50;;
67804;SDS011;54603;45.638;11.714;2022-12-16T18:09:32;13.90;;;12.50;;
67804;SDS011;54603;45.638;11.714;2022-12-16T18:12:16;13.30;;;11.90;;
67804;SDS011;54603;45.638;11.714;2022-12-16T18:15:00;13.60;;;12.10;;
67804;SDS011;54603;45.638;11.714;2022-12-16T18:17:48;13.70;;;11.60;;
67804;SDS011;54603;45.638;11.714;2022-12-16T18:20:32;17.30;;;12.20;;
67804;SDS011;54603;45.638;11.714;2022-12-16T18:23:17;14.80;;;12.20;;
67804;SDS011;54603;45.638;11.714;2022-12-16T18:26:04;13.90;;;12.50;;
67804;SDS011;54603;45.638;11.714;2022-12-16T18:28:49;15.00;;;12.50;;